Time;durP1;ratioP1;P1;durP2;ratioP2;P2;SDS_P1;SDS_P2;PMS_P1;PMS_P2;Temp;Humidity;BMP_temperature;BMP_pressure;BME280_temperature;BME280_humidity;BME280_pressure;Samples;Min_cycle;Max_cycle;Signal;HPM_P1;HPM_P2
2021/07/16 00:01:06;;;;;;;4.53;1.00;;;20.10;77.00;;;;;;5190967;27;27435;-61
2021/07/16 00:03:51;;;;;;;1.08;0.82;;;20.00;77.10;;;;;;5190914;27;27449;-60
2021/07/16 00:06:36;;;;;;;2.25;0.90;;;20.00;76.90;;;;;;5190830;27;27504;-61
2021/07/16 00:09:20;;;;;;;3.38;0.80;;;20.00;76.80;;;;;;5190518;27;27441;-61
2021/07/16 00:12:05;;;;;;;1.77;1.23;;;20.00;76.60;;;;;;5190819;27;27531;-61
2021/07/16 00:14:50;;;;;;;6.05;0.98;;;20.00;76.50;;;;;;5191039;27;27478;-60
2021/07/16 00:17:35;;;;;;;4.75;0.80;;;19.90;76.50;;;;;;5190212;27;27963;-61
2021/07/16 00:20:19;;;;;;;1.83;0.98;;;19.90;76.40;;;;;;5190509;27;27429;-60
2021/07/16 00:23:04;;;;;;;2.17;0.90;;;19.90;76.20;;;;;;5186871;27;27315;-60
2021/07/16 00:25:48;;;;;;;2.35;0.98;;;19.80;76.10;;;;;;5190228;27;27422;-60
2021/07/16 00:28:33;;;;;;;1.95;0.93;;;19.80;75.90;;;;;;5190704;27;27390;-60
2021/07/16 00:31:17;;;;;;;4.00;1.20;;;19.80;75.90;;;;;;5190553;27;27401;-60
2021/07/16 00:34:02;;;;;;;5.45;1.15;;;19.80;75.90;;;;;;5186402;27;27329;-60
2021/07/16 00:36:46;;;;;;;6.90;1.20;;;19.70;75.70;;;;;;5157102;27;27310;-60
2021/07/16 00:39:35;;;;;;;6.63;0.95;;;19.70;75.70;;;;;;5190419;27;27367;-60
2021/07/16 00:42:20;;;;;;;1.55;1.23;;;19.70;75.50;;;;;;5190407;27;27413;-60
2021/07/16 00:45:09;;;;;;;3.42;1.08;;;19.70;75.40;;;;;;5189407;27;27370;-61
2021/07/16 00:47:54;;;;;;;6.65;1.48;;;19.60;75.40;;;;;;5190245;27;27423;-60
2021/07/16 00:50:40;;;;;;;6.28;0.98;;;19.60;75.30;;;;;;5190149;27;27983;-60
2021/07/16 00:53:25;;;;;;;4.40;0.90;;;19.60;75.30;;;;;;5190386;27;27429;-60
2021/07/16 00:56:09;;;;;;;6.65;1.10;;;19.50;75.00;;;;;;5190111;27;27475;-60
2021/07/16 00:58:54;;;;;;;14.43;1.33;;;19.50;75.20;;;;;;5188784;27;27518;-60
2021/07/16 01:01:39;;;;;;;7.80;2.05;;;19.50;75.00;;;;;;5189341;27;27409;-60
2021/07/16 01:04:24;;;;;;;1.38;0.93;;;19.40;75.00;;;;;;5189822;27;27426;-61
2021/07/16 01:07:08;;;;;;;2.85;1.02;;;19.40;75.00;;;;;;5189199;27;27483;-60
2021/07/16 01:09:53;;;;;;;2.60;1.13;;;19.40;74.90;;;;;;5189396;27;27472;-60
2021/07/16 01:12:39;;;;;;;4.53;1.20;;;19.40;75.00;;;;;;5189069;27;27481;-60
2021/07/16 01:15:25;;;;;;;6.90;1.10;;;19.30;74.90;;;;;;5188833;27;27517;-60
2021/07/16 01:18:10;;;;;;;3.47;0.90;;;19.30;75.00;;;;;;5190016;27;27498;-60
2021/07/16 01:20:55;;;;;;;3.50;1.02;;;19.30;75.10;;;;;;5188688;27;27432;-60
2021/07/16 01:23:41;;;;;;;7.45;1.10;;;19.30;75.10;;;;;;5189711;27;27866;-60
2021/07/16 01:26:26;;;;;;;4.18;1.00;;;19.20;75.00;;;;;;5189736;27;27418;-60
2021/07/16 01:29:11;;;;;;;6.82;1.38;;;19.20;75.20;;;;;;5188823;27;27326;-60
2021/07/16 01:31:56;;;;;;;6.53;1.20;;;19.20;75.30;;;;;;5174175;27;27346;-60
2021/07/16 01:34:41;;;;;;;2.88;1.00;;;19.20;75.60;;;;;;5173905;27;27422;-60
2021/07/16 01:37:25;;;;;;;5.60;1.30;;;19.20;75.90;;;;;;5189579;27;27396;-60
2021/07/16 01:40:15;;;;;;;8.00;0.95;;;19.20;76.10;;;;;;5188257;27;27596;-60
2021/07/16 01:42:59;;;;;;;3.05;0.90;;;19.20;76.20;;;;;;5189225;27;27349;-59
2021/07/16 01:45:44;;;;;;;3.58;1.00;;;19.10;76.00;;;;;;5173888;27;27400;-60
2021/07/16 01:48:30;;;;;;;4.45;1.27;;;19.10;76.00;;;;;;5189363;27;27342;-60
2021/07/16 01:51:14;;;;;;;2.70;1.02;;;19.10;75.90;;;;;;5189366;27;27350;-60
2021/07/16 01:53:59;;;;;;;4.75;1.20;;;19.10;75.90;;;;;;5189334;27;27363;-59
2021/07/16 01:56:44;;;;;;;9.45;1.20;;;19.10;76.00;;;;;;5188154;27;27988;-60
2021/07/16 01:59:31;;;;;;;5.10;1.20;;;19.00;75.90;;;;;;5187265;27;27614;-60
2021/07/16 02:02:16;;;;;;;5.85;1.20;;;19.00;76.00;;;;;;5188428;27;27429;-60
2021/07/16 02:05:01;;;;;;;1.45;1.10;;;19.00;76.00;;;;;;5188306;27;27499;-60
2021/07/16 02:07:49;;;;;;;2.25;1.20;;;19.00;76.10;;;;;;5188448;27;27864;-60
2021/07/16 02:10:35;;;;;;;5.72;1.15;;;19.00;76.20;;;;;;5184202;27;27425;-60
2021/07/16 02:13:20;;;;;;;2.53;0.98;;;18.90;76.20;;;;;;5189225;27;27474;-60
2021/07/16 02:16:05;;;;;;;3.22;1.35;;;18.90;76.40;;;;;;5187954;27;27452;-60
2021/07/16 02:18:51;;;;;;;10.13;1.40;;;18.90;76.60;;;;;;5187859;27;27419;-60
2021/07/16 02:21:35;;;;;;;3.45;1.30;;;18.90;76.80;;;;;;5184513;27;27523;-60
2021/07/16 02:24:20;;;;;;;1.95;1.15;;;18.90;76.90;;;;;;5189059;27;27398;-59
2021/07/16 02:27:05;;;;;;;6.45;1.65;;;18.90;77.10;;;;;;5188918;27;27425;-60
2021/07/16 02:29:50;;;;;;;4.45;1.50;;;18.90;77.20;;;;;;5188589;27;27446;-60
2021/07/16 02:32:35;;;;;;;4.40;1.20;;;18.90;77.20;;;;;;5184712;27;27610;-60
2021/07/16 02:35:20;;;;;;;2.75;1.20;;;18.90;77.50;;;;;;5188224;27;27477;-60
2021/07/16 02:38:04;;;;;;;4.45;1.17;;;18.90;77.30;;;;;;5188384;27;27374;-60
2021/07/16 02:40:50;;;;;;;7.63;1.20;;;18.90;77.50;;;;;;5188272;27;27421;-60
2021/07/16 02:43:36;;;;;;;3.25;0.90;;;18.90;77.40;;;;;;5187495;27;27506;-60
2021/07/16 02:46:20;;;;;;;2.55;1.27;;;18.90;77.30;;;;;;5187735;27;27367;-60
2021/07/16 02:49:05;;;;;;;6.75;1.25;;;18.90;77.20;;;;;;5184181;27;27460;-60
2021/07/16 02:51:50;;;;;;;9.18;1.40;;;18.80;77.20;;;;;;5188173;27;27397;-60
2021/07/16 02:54:34;;;;;;;3.75;1.08;;;18.80;77.10;;;;;;5187683;27;27429;-60
2021/07/16 02:57:19;;;;;;;5.35;1.60;;;18.80;77.10;;;;;;5188411;27;27450;-60
2021/07/16 03:00:06;;;;;;;3.58;1.33;;;18.80;77.10;;;;;;5187070;27;27421;-60
2021/07/16 03:02:51;;;;;;;5.57;1.35;;;18.80;77.20;;;;;;5169563;27;27307;-59
2021/07/16 03:05:36;;;;;;;6.65;1.30;;;18.80;77.20;;;;;;5188155;27;27533;-60
2021/07/16 03:08:20;;;;;;;3.80;1.23;;;18.80;77.40;;;;;;5187866;27;27344;-60
2021/07/16 03:11:05;;;;;;;6.22;1.48;;;18.80;77.50;;;;;;5187650;27;27478;-60
2021/07/16 03:13:50;;;;;;;4.97;1.20;;;18.80;77.60;;;;;;5183476;27;27882;-60
2021/07/16 03:16:34;;;;;;;8.23;1.17;;;18.70;77.70;;;;;;5187658;27;27436;-60
2021/07/16 03:19:19;;;;;;;5.95;1.08;;;18.70;77.90;;;;;;5187223;27;27444;-60
2021/07/16 03:22:04;;;;;;;5.18;2.20;;;18.70;77.90;;;;;;5187895;27;27474;-60
2021/07/16 03:24:48;;;;;;;6.22;1.35;;;18.70;78.00;;;;;;5187911;27;27420;-60
2021/07/16 03:27:32;;;;;;;8.43;1.35;;;18.70;78.00;;;;;;5172172;27;27481;-60
2021/07/16 03:30:22;;;;;;;1.83;1.20;;;18.70;78.10;;;;;;5168086;27;27468;-60
2021/07/16 03:33:07;;;;;;;7.25;1.30;;;18.70;78.20;;;;;;5187770;27;27336;-60
2021/07/16 03:35:51;;;;;;;9.45;1.55;;;18.70;78.40;;;;;;5186647;27;27399;-60
2021/07/16 03:38:37;;;;;;;3.53;2.67;;;18.70;78.60;;;;;;5187607;27;27334;-60
2021/07/16 03:41:21;;;;;;;6.07;2.40;;;18.70;78.90;;;;;;5168894;27;27307;-60
2021/07/16 03:44:06;;;;;;;6.50;2.28;;;18.70;79.00;;;;;;5187668;27;27346;-60
2021/07/16 03:46:51;;;;;;;6.63;2.90;;;18.70;79.20;;;;;;5187634;27;27380;-60
2021/07/16 03:49:36;;;;;;;5.38;2.65;;;18.70;79.50;;;;;;5187209;27;27386;-60
2021/07/16 03:52:21;;;;;;;4.47;2.83;;;18.70;79.60;;;;;;5168657;27;27410;-60
2021/07/16 03:55:08;;;;;;;8.25;3.10;;;18.70;79.80;;;;;;5187605;27;27380;-60
2021/07/16 03:57:53;;;;;;;11.20;3.25;;;18.70;80.00;;;;;;5167752;27;27579;-60
2021/07/16 04:00:38;;;;;;;5.45;3.42;;;18.70;80.00;;;;;;5185803;27;27391;-60
2021/07/16 04:03:24;;;;;;;4.35;2.75;;;18.80;80.20;;;;;;5183121;27;27388;-60
2021/07/16 04:06:09;;;;;;;6.70;2.75;;;18.70;80.20;;;;;;5187162;27;27371;-60
2021/07/16 04:09:00;;;;;;;5.30;2.38;;;18.80;80.30;;;;;;5187237;27;27404;-60
2021/07/16 04:11:45;;;;;;;5.20;2.70;;;18.80;80.40;;;;;;5187300;27;27489;-60
2021/07/16 04:14:30;;;;;;;4.75;3.33;;;18.70;80.40;;;;;;5171533;27;27575;-60
2021/07/16 04:17:25;;;;;;;7.60;2.88;;;18.80;80.50;;;;;;5187405;27;27397;-60
2021/07/16 04:20:10;;;;;;;6.22;2.50;;;18.80;80.60;;;;;;5186428;27;27815;-60
2021/07/16 04:22:55;;;;;;;3.08;2.50;;;18.80;80.60;;;;;;5187370;27;27399;-60
2021/07/16 04:25:40;;;;;;;4.80;2.70;;;18.80;80.70;;;;;;5186308;27;27525;-60
2021/07/16 04:28:25;;;;;;;5.65;2.67;;;18.80;80.80;;;;;;5186617;27;27454;-60
2021/07/16 04:31:09;;;;;;;7.60;2.70;;;18.80;81.00;;;;;;5187192;27;27407;-60
2021/07/16 04:33:54;;;;;;;4.45;2.58;;;18.80;81.10;;;;;;5171172;27;27479;-59
2021/07/16 04:36:39;;;;;;;4.55;2.70;;;18.80;81.30;;;;;;5187136;27;27485;-60
2021/07/16 04:39:24;;;;;;;4.80;3.08;;;18.80;81.40;;;;;;5171600;27;27461;-60
2021/07/16 04:42:08;;;;;;;3.88;2.78;;;18.80;81.50;;;;;;5174066;27;27526;-60
2021/07/16 04:44:54;;;;;;;3.63;3.33;;;18.80;81.70;;;;;;5186440;27;27498;-59
2021/07/16 04:47:40;;;;;;;7.55;3.05;;;18.80;81.80;;;;;;5190620;27;27443;-59
2021/07/16 04:50:24;;;;;;;17.60;5.28;;;18.80;81.90;;;;;;5189869;27;27547;-60
2021/07/16 04:53:09;;;;;;;4.60;3.58;;;18.80;82.10;;;;;;5186270;27;27409;-60
2021/07/16 04:55:53;;;;;;;8.20;3.88;;;18.80;82.30;;;;;;5189622;27;27478;-60
2021/07/16 04:58:38;;;;;;;11.55;4.20;;;18.90;82.60;;;;;;5189617;27;27449;-60
2021/07/16 05:01:24;;;;;;;9.25;3.72;;;18.90;82.70;;;;;;5189997;27;27435;-60
2021/07/16 05:04:09;;;;;;;13.02;4.20;;;18.90;82.80;;;;;;5189458;27;27889;-60
2021/07/16 05:06:53;;;;;;;7.95;4.07;;;18.90;83.00;;;;;;5189409;27;27539;-60
2021/07/16 05:09:37;;;;;;;9.00;3.92;;;18.90;83.00;;;;;;5189775;27;27470;-60
2021/07/16 05:12:22;;;;;;;9.70;4.20;;;18.90;83.10;;;;;;5188914;27;27468;-60
2021/07/16 05:15:07;;;;;;;10.30;3.72;;;18.90;83.20;;;;;;5189188;27;27489;-60
2021/07/16 05:17:51;;;;;;;6.75;5.03;;;18.90;83.20;;;;;;5188872;27;27450;-60
2021/07/16 05:20:35;;;;;;;6.18;4.47;;;18.90;83.30;;;;;;5188913;27;27330;-60
2021/07/16 05:23:20;;;;;;;8.90;4.05;;;18.90;83.50;;;;;;5188660;27;27605;-60
2021/07/16 05:26:05;;;;;;;10.13;4.22;;;19.00;83.80;;;;;;5189004;27;27859;-60
2021/07/16 05:28:50;;;;;;;10.25;4.80;;;19.00;83.90;;;;;;5189679;27;27556;-60
2021/07/16 05:31:34;;;;;;;8.18;4.80;;;19.00;83.90;;;;;;5188719;27;27358;-60
2021/07/16 05:34:19;;;;;;;9.23;4.70;;;19.00;83.80;;;;;;5189494;27;27380;-60
2021/07/16 05:37:04;;;;;;;12.73;4.63;;;19.10;83.70;;;;;;5189629;27;27407;-59
2021/07/16 05:39:48;;;;;;;11.32;4.35;;;19.10;83.70;;;;;;5188499;27;27605;-60
2021/07/16 05:42:33;;;;;;;6.95;4.45;;;19.10;83.60;;;;;;5188528;27;27336;-60
2021/07/16 05:45:17;;;;;;;7.32;4.30;;;19.20;83.60;;;;;;5188525;27;27350;-60
2021/07/16 05:48:03;;;;;;;9.05;4.53;;;19.20;83.90;;;;;;5189451;27;27382;-60
2021/07/16 05:50:48;;;;;;;11.20;4.65;;;19.20;84.00;;;;;;5172699;27;27343;-60
2021/07/16 05:53:33;;;;;;;9.20;4.20;;;19.20;84.30;;;;;;5173770;27;27335;-60
2021/07/16 05:56:17;;;;;;;4.32;3.92;;;19.20;84.40;;;;;;5188378;27;27430;-60
2021/07/16 05:59:27;;;;;;;3.72;3.42;;;19.20;84.70;;;;;;5188378;27;27392;-60
2021/07/16 06:02:12;;;;;;;5.22;2.70;;;19.20;84.80;;;;;;5188309;27;27478;-62
2021/07/16 06:04:56;;;;;;;6.07;3.30;;;19.20;85.20;;;;;;5189257;27;27470;-60
2021/07/16 06:07:42;;;;;;;3.97;2.97;;;19.20;85.30;;;;;;5188989;27;27465;-60
2021/07/16 06:10:28;;;;;;;5.75;3.00;;;19.20;85.40;;;;;;5188613;27;27471;-60
2021/07/16 06:13:12;;;;;;;5.47;3.40;;;19.20;85.60;;;;;;5187902;27;27487;-60
2021/07/16 06:15:57;;;;;;;5.10;2.80;;;19.20;85.60;;;;;;5189094;27;27455;-60
2021/07/16 06:18:42;;;;;;;5.20;2.58;;;19.20;85.70;;;;;;5188530;27;27572;-60
2021/07/16 06:21:26;;;;;;;5.93;2.55;;;19.30;85.90;;;;;;5188663;27;27424;-59
2021/07/16 06:24:11;;;;;;;5.40;2.53;;;19.30;85.90;;;;;;5184456;27;27498;-60
2021/07/16 06:26:56;;;;;;;5.88;3.15;;;19.30;86.00;;;;;;5173467;27;27489;-60
2021/07/16 06:29:41;;;;;;;4.72;3.25;;;19.30;86.00;;;;;;5188008;27;27476;-60
2021/07/16 06:32:25;;;;;;;9.07;3.58;;;19.40;86.20;;;;;;5188075;27;28088;-60
2021/07/16 06:35:10;;;;;;;8.32;3.08;;;19.40;86.20;;;;;;5188473;27;27345;-60
2021/07/16 06:37:55;;;;;;;8.27;2.97;;;19.50;86.00;;;;;;5188169;27;27337;-60
2021/07/16 06:40:39;;;;;;;3.58;2.65;;;19.50;86.10;;;;;;5188827;27;27383;-60
2021/07/16 06:43:24;;;;;;;4.28;2.30;;;19.50;86.10;;;;;;5188724;27;27379;-60
2021/07/16 06:46:08;;;;;;;7.30;3.17;;;19.60;86.80;;;;;;5187308;27;27364;-60
2021/07/16 06:48:53;;;;;;;9.02;3.30;;;19.60;86.50;;;;;;5188168;27;27471;-60
2021/07/16 06:51:39;;;;;;;5.10;3.00;;;19.70;86.60;;;;;;5188095;27;27388;-60
2021/07/16 06:54:24;;;;;;;9.13;3.10;;;19.70;86.50;;;;;;5187812;27;27862;-60
2021/07/16 06:57:09;;;;;;;6.10;3.30;;;19.80;86.60;;;;;;5187800;27;27425;-60
2021/07/16 06:59:53;;;;;;;3.30;3.00;;;19.80;86.80;;;;;;5187672;27;27427;-60
2021/07/16 07:02:37;;;;;;;5.97;3.10;;;19.90;86.60;;;;;;5188690;27;26911;-61
2021/07/16 07:05:25;;;;;;;10.13;4.25;;;20.00;86.90;;;;;;5188228;27;27376;-60
2021/07/16 07:08:10;;;;;;;6.03;2.70;;;20.00;86.70;;;;;;5187781;27;27544;-60
2021/07/16 07:10:55;;;;;;;5.13;3.53;;;20.10;86.40;;;;;;5188036;27;26948;-60
2021/07/16 07:13:40;;;;;;;11.55;4.05;;;20.20;86.50;;;;;;5185199;27;27322;-60
2021/07/16 07:16:24;;;;;;;3.83;3.00;;;20.20;86.70;;;;;;5184071;27;27954;-61
2021/07/16 07:19:09;;;;;;;4.43;3.60;;;20.30;86.90;;;;;;5172680;27;27525;-60
2021/07/16 07:21:53;;;;;;;6.40;3.20;;;20.30;87.10;;;;;;5184374;27;27390;-60
2021/07/16 07:24:38;;;;;;;4.13;3.03;;;20.40;87.30;;;;;;5187974;27;27323;-60
2021/07/16 07:27:23;;;;;;;5.75;2.97;;;20.40;88.10;;;;;;5187428;27;27307;-60
2021/07/16 07:30:08;;;;;;;6.70;3.33;;;20.50;89.10;;;;;;5186935;27;27391;-60
2021/07/16 07:32:53;;;;;;;4.88;3.10;;;20.50;89.20;;;;;;5187315;27;27423;-60
2021/07/16 07:35:37;;;;;;;3.55;2.78;;;20.60;89.20;;;;;;5183805;27;27350;-60
2021/07/16 07:38:22;;;;;;;7.03;3.25;;;20.80;89.50;;;;;;5187827;27;27326;-61
2021/07/16 07:41:07;;;;;;;5.07;3.60;;;21.00;89.30;;;;;;5186556;27;27572;-61
2021/07/16 07:43:53;;;;;;;4.35;2.72;;;21.30;88.70;;;;;;5188119;27;27368;-61
2021/07/16 07:46:37;;;;;;;3.65;3.35;;;21.40;88.10;;;;;;5188105;27;27358;-61
2021/07/16 07:49:22;;;;;;;6.68;3.38;;;21.60;87.80;;;;;;5187872;27;27975;-61
2021/07/16 07:52:07;;;;;;;4.75;3.17;;;21.70;87.70;;;;;;5187124;27;27406;-61
2021/07/16 07:54:52;;;;;;;4.18;2.42;;;22.00;87.30;;;;;;5188051;27;27406;-61
2021/07/16 07:57:37;;;;;;;3.53;3.03;;;22.10;87.20;;;;;;5187950;27;27370;-61
2021/07/16 08:00:23;;;;;;;4.82;3.33;;;22.10;87.10;;;;;;5187557;27;27322;-61
2021/07/16 08:03:10;;;;;;;5.07;2.55;;;22.10;87.60;;;;;;5186861;27;27505;-61
2021/07/16 08:05:54;;;;;;;3.42;2.72;;;22.00;87.70;;;;;;5186768;27;27422;-61
2021/07/16 08:08:39;;;;;;;4.55;2.97;;;21.90;87.30;;;;;;5187495;27;27379;-61
2021/07/16 08:11:24;;;;;;;5.38;3.25;;;21.80;88.00;;;;;;5187409;27;27387;-61
2021/07/16 08:14:08;;;;;;;7.18;3.30;;;21.70;87.90;;;;;;5187648;27;27319;-60
2021/07/16 08:16:53;;;;;;;4.25;3.33;;;21.70;88.30;;;;;;5189273;27;27407;-61
2021/07/16 08:19:38;;;;;;;7.47;2.83;;;21.90;87.80;;;;;;5190614;27;27322;-61
2021/07/16 08:22:23;;;;;;;7.82;3.30;;;22.30;86.90;;;;;;5190515;27;27330;-61
2021/07/16 08:25:08;;;;;;;3.85;3.20;;;22.80;85.10;;;;;;5191278;27;27510;-61
2021/07/16 08:27:53;;;;;;;3.75;2.85;;;23.10;83.50;;;;;;5191286;27;27404;-61
2021/07/16 08:30:39;;;;;;;2.63;2.30;;;23.30;82.90;;;;;;5190646;27;27432;-61
2021/07/16 08:33:24;;;;;;;3.08;2.40;;;23.60;83.70;;;;;;5190503;27;28468;-61
2021/07/16 08:36:08;;;;;;;4.18;2.20;;;23.80;81.70;;;;;;5172124;27;27323;-61
2021/07/16 08:38:53;;;;;;;2.83;1.88;;;23.80;81.00;;;;;;5190108;27;27393;-61
2021/07/16 08:41:38;;;;;;;3.28;2.00;;;23.70;81.70;;;;;;5190743;27;27387;-62
2021/07/16 08:44:23;;;;;;;4.13;2.10;;;23.60;82.60;;;;;;5190650;27;27857;-62
2021/07/16 08:47:07;;;;;;;2.30;2.10;;;23.40;83.20;;;;;;5191031;27;27341;-62
2021/07/16 08:49:52;;;;;;;2.22;2.03;;;23.30;84.10;;;;;;5190045;27;27404;-61
2021/07/16 08:52:38;;;;;;;2.80;2.15;;;23.30;84.50;;;;;;5191063;27;27468;-61
2021/07/16 08:55:23;;;;;;;4.57;2.20;;;23.20;85.10;;;;;;5190882;27;27414;-61
2021/07/16 08:58:10;;;;;;;2.25;2.05;;;23.10;86.50;;;;;;5189996;27;27407;-62
2021/07/16 09:00:55;;;;;;;2.22;1.70;;;23.00;86.30;;;;;;5190419;27;27419;-61
2021/07/16 09:04:02;;;;;;;2.25;2.05;;;23.00;87.00;;;;;;5190801;27;27314;-62
2021/07/16 09:06:52;;;;;;;3.75;2.20;;;23.00;86.90;;;;;;5190318;27;27843;-61
2021/07/16 09:09:39;;;;;;;3.85;2.72;;;22.90;86.90;;;;;;5190150;27;27428;-62
2021/07/16 09:12:23;;;;;;;4.47;2.92;;;22.80;87.30;;;;;;5190582;27;27373;-61
2021/07/16 09:15:15;;;;;;;3.50;2.70;;;22.70;86.90;;;;;;5171275;27;27367;-61
2021/07/16 09:18:30;;;;;;;3.10;2.53;;;22.70;87.30;;;;;;5190233;27;27867;-61
2021/07/16 09:21:15;;;;;;;2.78;2.58;;;22.60;87.30;;;;;;5184030;27;27478;-61
2021/07/16 09:24:03;;;;;;;3.40;2.92;;;22.50;87.10;;;;;;5190276;27;27451;-61
2021/07/16 09:26:47;;;;;;;3.10;2.58;;;22.40;87.30;;;;;;5189150;27;27387;-61
2021/07/16 09:29:33;;;;;;;2.92;2.63;;;22.40;88.10;;;;;;5190242;27;27325;-61
2021/07/16 09:32:17;;;;;;;2.63;2.40;;;22.30;88.30;;;;;;5186242;27;27365;-61
2021/07/16 09:35:02;;;;;;;2.97;2.67;;;22.30;87.80;;;;;;5190340;27;27379;-61
2021/07/16 09:37:52;;;;;;;2.88;2.35;;;22.40;87.80;;;;;;5190257;27;27318;-61
2021/07/16 09:40:41;;;;;;;3.88;2.22;;;22.40;87.20;;;;;;5174659;27;27463;-61
2021/07/16 09:43:26;;;;;;;2.50;2.30;;;22.40;86.60;;;;;;5188989;27;27476;-61
2021/07/16 09:46:10;;;;;;;2.15;1.98;;;22.40;86.60;;;;;;5190064;27;27465;-61
2021/07/16 09:49:10;;;;;;;3.13;2.13;;;22.40;86.90;;;;;;5189624;27;27409;-61
2021/07/16 09:51:55;;;;;;;2.20;2.00;;;22.40;87.00;;;;;;5188863;27;27440;-62
2021/07/16 09:55:05;;;;;;;2.70;2.50;;;22.40;87.60;;;;;;5157699;27;27381;-61
2021/07/16 09:57:52;;;;;;;4.53;2.20;;;22.50;87.60;;;;;;5189354;27;27412;-62
2021/07/16 10:00:37;;;;;;;2.20;2.00;;;22.60;88.20;;;;;;5170868;27;27420;-61
2021/07/16 10:03:22;;;;;;;2.20;2.00;;;22.70;88.80;;;;;;5189672;27;27843;-62
2021/07/16 10:06:12;;;;;;;2.55;2.35;;;22.90;89.00;;;;;;5188936;27;27379;-61
2021/07/16 10:08:57;;;;;;;2.05;1.88;;;23.10;89.40;;;;;;5188790;27;27478;-62
2021/07/16 10:11:42;;;;;;;3.13;2.08;;;23.20;88.30;;;;;;5189255;27;27482;-62
2021/07/16 10:14:27;;;;;;;2.35;2.08;;;23.30;87.90;;;;;;5155916;27;28033;-62
2021/07/16 10:17:12;;;;;;;2.08;1.98;;;23.40;88.20;;;;;;5189180;27;27412;-61
2021/07/16 10:19:57;;;;;;;1.98;1.88;;;23.40;87.30;;;;;;5188437;27;27546;-62
2021/07/16 10:22:43;;;;;;;1.77;1.67;;;23.40;87.20;;;;;;5187817;27;27433;-62
2021/07/16 10:25:28;;;;;;;2.55;2.30;;;23.50;86.70;;;;;;5189281;27;27477;-62
2021/07/16 10:28:41;;;;;;;2.45;1.92;;;23.50;86.50;;;;;;5188438;27;27518;-62
2021/07/16 10:31:39;;;;;;;2.22;2.03;;;23.50;86.20;;;;;;5188258;27;27318;-62
2021/07/16 10:34:30;;;;;;;2.28;1.88;;;23.60;86.80;;;;;;5188893;27;27456;-62
2021/07/16 10:37:15;;;;;;;1.90;1.80;;;23.60;87.30;;;;;;5188263;27;27812;-62
2021/07/16 10:40:00;;;;;;;2.70;2.03;;;23.50;87.50;;;;;;5172463;27;27389;-62
2021/07/16 10:42:46;;;;;;;3.20;2.47;;;23.50;87.90;;;;;;5173123;27;27322;-62
2021/07/16 10:45:37;;;;;;;3.60;2.30;;;23.50;87.70;;;;;;5173491;27;26917;-62
2021/07/16 10:48:31;;;;;;;3.55;2.00;;;23.50;87.60;;;;;;5188168;27;27556;-62
2021/07/16 10:51:42;;;;;;;1.80;1.70;;;23.60;87.00;;;;;;5170242;27;27470;-62
2021/07/16 10:54:27;;;;;;;7.07;2.10;;;23.70;86.30;;;;;;5185196;27;27470;-62
2021/07/16 10:57:14;;;;;;;2.85;1.95;;;23.80;86.90;;;;;;5173140;27;27383;-62
2021/07/16 10:59:59;;;;;;;1.65;1.55;;;24.00;87.60;;;;;;5187669;27;27982;-62
2021/07/16 11:02:47;;;;;;;2.20;1.90;;;24.10;88.60;;;;;;5187540;27;27432;-62
2021/07/16 11:05:32;;;;;;;3.03;1.75;;;24.20;88.80;;;;;;5187959;27;27380;-63
2021/07/16 11:08:26;;;;;;;4.78;1.50;;;24.20;88.70;;;;;;5187576;27;27431;-62
2021/07/16 11:11:12;;;;;;;4.20;1.40;;;24.30;87.00;;;;;;5187401;27;27967;-62
2021/07/16 11:13:58;;;;;;;2.67;1.52;;;24.40;87.20;;;;;;5188232;27;27474;-63
2021/07/16 11:16:43;;;;;;;12.15;1.85;;;24.40;86.60;;;;;;5187009;27;27414;-62
2021/07/16 11:19:28;;;;;;;1.55;1.45;;;24.50;86.90;;;;;;5188256;27;27324;-63
2021/07/16 11:22:13;;;;;;;1.83;1.73;;;24.60;86.00;;;;;;5188335;27;27376;-63
2021/07/16 11:24:58;;;;;;;1.80;1.70;;;24.80;85.70;;;;;;5187525;27;27636;-62
2021/07/16 11:27:43;;;;;;;1.60;1.38;;;24.80;85.00;;;;;;5188189;27;27395;-62
2021/07/16 11:30:28;;;;;;;1.65;1.55;;;24.80;85.70;;;;;;5187946;27;27389;-62
2021/07/16 11:33:13;;;;;;;1.80;1.70;;;24.80;85.90;;;;;;5187285;27;27340;-62
2021/07/16 11:35:59;;;;;;;1.73;1.63;;;24.70;84.30;;;;;;5188058;27;27404;-63
2021/07/16 11:38:55;;;;;;;2.90;1.83;;;24.70;84.10;;;;;;5188080;27;27426;-62
2021/07/16 11:41:40;;;;;;;2.00;1.58;;;24.60;84.00;;;;;;5187910;27;27321;-63
2021/07/16 11:44:33;;;;;;;5.07;1.95;;;24.50;84.00;;;;;;5169029;27;27384;-63
2021/07/16 11:47:24;;;;;;;1.75;1.50;;;24.50;83.50;;;;;;5187757;27;27330;-62
2021/07/16 11:50:14;;;;;;;1.80;1.60;;;24.50;83.20;;;;;;5190787;27;27476;-62
2021/07/16 11:52:59;;;;;;;2.03;1.88;;;24.50;84.20;;;;;;5194828;27;27363;-63
2021/07/16 11:55:45;;;;;;;2.10;1.90;;;24.50;83.80;;;;;;5194731;27;27387;-62
2021/07/16 11:58:30;;;;;;;2.38;1.85;;;24.60;83.90;;;;;;5178834;27;27327;-63
2021/07/16 12:01:16;;;;;;;4.35;1.90;;;24.80;85.10;;;;;;5194214;27;27338;-62
2021/07/16 12:04:01;;;;;;;2.28;2.08;;;25.10;85.70;;;;;;5194916;27;27405;-63
2021/07/16 12:06:53;;;;;;;1.85;1.52;;;25.40;86.60;;;;;;5194082;27;27336;-62
2021/07/16 12:09:41;;;;;;;1.67;1.58;;;25.60;86.60;;;;;;5194412;27;27506;-63
2021/07/16 12:12:26;;;;;;;1.42;1.30;;;25.70;85.40;;;;;;5194205;27;27389;-64
2021/07/16 12:15:15;;;;;;;3.30;1.77;;;25.70;86.10;;;;;;5194848;27;27371;-62
2021/07/16 12:18:01;;;;;;;2.35;1.63;;;25.70;85.70;;;;;;5194399;27;27470;-63
2021/07/16 12:20:50;;;;;;;2.50;1.80;;;25.70;85.10;;;;;;5193635;27;27585;-62
2021/07/16 12:23:35;;;;;;;2.20;1.55;;;25.60;83.60;;;;;;5194370;27;27394;-63
2021/07/16 12:26:22;;;;;;;1.77;1.45;;;25.60;82.80;;;;;;5190211;27;27383;-62
2021/07/16 12:29:09;;;;;;;2.22;1.50;;;25.50;82.60;;;;;;5175289;27;27310;-62
2021/07/16 12:31:54;;;;;;;1.55;1.45;;;25.50;82.30;;;;;;5179264;27;27479;-62
2021/07/16 12:34:44;;;;;;;1.77;1.67;;;25.40;81.90;;;;;;5194683;27;27458;-62
2021/07/16 12:37:38;;;;;;;1.50;1.27;;;25.40;80.90;;;;;;5179173;27;27419;-62
2021/07/16 12:40:22;;;;;;;1.52;1.35;;;25.40;80.90;;;;;;5193047;27;27383;-62
2021/07/16 12:43:18;;;;;;;1.80;1.70;;;25.40;81.70;;;;;;5193414;27;27538;-63
2021/07/16 12:46:02;;;;;;;1.95;1.77;;;25.40;79.20;;;;;;5193452;27;27346;-63
2021/07/16 12:48:47;;;;;;;1.70;1.42;;;25.40;81.20;;;;;;5178818;27;27393;-62
2021/07/16 12:51:38;;;;;;;1.25;1.15;;;25.50;80.50;;;;;;5175299;27;27123;-63
2021/07/16 12:54:23;;;;;;;1.38;1.27;;;25.50;81.10;;;;;;5193972;27;27420;-63
2021/07/16 12:57:14;;;;;;;1.40;1.30;;;25.60;82.20;;;;;;5194320;27;27408;-63
2021/07/16 13:00:00;;;;;;;2.92;1.90;;;25.80;81.30;;;;;;5193239;27;27411;-63
2021/07/16 13:02:48;;;;;;;4.03;1.50;;;25.80;81.00;;;;;;5189988;27;27375;-63
2021/07/16 13:05:33;;;;;;;2.63;1.40;;;25.90;79.00;;;;;;5189506;27;27548;-63
2021/07/16 13:08:23;;;;;;;1.85;1.40;;;25.90;80.50;;;;;;5190048;27;27433;-63
2021/07/16 13:11:11;;;;;;;3.17;1.40;;;25.90;79.80;;;;;;5189233;27;27365;-63
2021/07/16 13:13:56;;;;;;;2.20;1.40;;;25.80;78.40;;;;;;5190261;27;27390;-63
2021/07/16 13:16:41;;;;;;;1.60;1.50;;;25.80;77.50;;;;;;5190500;27;27352;-63
2021/07/16 13:19:25;;;;;;;4.13;1.38;;;25.70;78.80;;;;;;5174626;27;27380;-63
2021/07/16 13:22:11;;;;;;;1.45;1.33;;;25.70;79.50;;;;;;5190119;27;27384;-62
2021/07/16 13:24:56;;;;;;;1.80;1.27;;;25.60;79.50;;;;;;5189995;27;27329;-63
2021/07/16 13:27:41;;;;;;;2.95;1.13;;;25.60;78.80;;;;;;5190323;27;27326;-62
2021/07/16 13:30:26;;;;;;;1.48;1.38;;;25.60;78.70;;;;;;5189327;27;27365;-63
2021/07/16 13:33:11;;;;;;;1.05;0.95;;;25.50;79.10;;;;;;5189996;27;27386;-62
2021/07/16 13:35:59;;;;;;;1.73;1.50;;;25.50;79.60;;;;;;5173874;27;27375;-62
2021/07/16 13:38:43;;;;;;;2.03;1.15;;;25.50;79.10;;;;;;5190131;27;27450;-62
2021/07/16 13:41:28;;;;;;;1.17;1.08;;;25.40;77.60;;;;;;5189956;27;27458;-62
2021/07/16 13:44:13;;;;;;;1.30;0.93;;;25.40;78.60;;;;;;5190109;27;27393;-62
2021/07/16 13:46:58;;;;;;;1.00;0.88;;;25.40;77.60;;;;;;5188913;27;27424;-62
2021/07/16 13:49:43;;;;;;;3.53;1.20;;;25.50;76.90;;;;;;5189528;27;27417;-61
2021/07/16 13:52:28;;;;;;;4.00;1.30;;;25.50;77.50;;;;;;5189012;27;27417;-62
2021/07/16 13:55:13;;;;;;;1.23;1.02;;;25.50;77.90;;;;;;5170746;27;27475;-62
2021/07/16 13:57:58;;;;;;;1.20;1.10;;;25.50;78.00;;;;;;5188903;27;27488;-62
2021/07/16 14:00:42;;;;;;;1.23;0.90;;;25.50;78.90;;;;;;5188957;27;27515;-62
2021/07/16 14:03:27;;;;;;;1.58;1.20;;;25.50;79.20;;;;;;5189489;27;27331;-63
2021/07/16 14:06:12;;;;;;;1.52;1.42;;;25.60;78.40;;;;;;5189396;27;27502;-62
2021/07/16 14:08:56;;;;;;;1.35;1.13;;;25.60;78.50;;;;;;5185207;27;27366;-62
2021/07/16 14:11:41;;;;;;;1.40;1.20;;;25.60;80.20;;;;;;5173883;27;27388;-62
2021/07/16 14:14:26;;;;;;;1.05;1.02;;;25.60;80.90;;;;;;5188331;27;27330;-62
2021/07/16 14:17:11;;;;;;;1.05;0.98;;;25.80;83.30;;;;;;5189245;27;27371;-63
2021/07/16 14:19:56;;;;;;;1.48;1.38;;;26.00;82.10;;;;;;5189399;27;27384;-62
2021/07/16 14:22:40;;;;;;;2.10;1.42;;;26.20;84.60;;;;;;5184950;27;27388;-62